EKAH

Aarhus Airport

Aarhus, Denmark
METAR EKAH 240550Z AUTO 28008KT 9999NDV BKN200/// 05/02 Q1011
Observed Flight Rules
Oct-24 @ 05:50 UTC (12 minutes ago)
Wind Clouds
280° at 8 knots
  • Broken at 20,000' AGL
Temperatures Readings
Current 5°C / 41°F
Dewpoint 2°C / 36°F
Humidity 81%
Altimeter 29.85" Hg
Pressure 1011 hPa
Elevation 25
METAR EKAH 240550Z AUTO 28008KT 9999NDV BKN200/// 05/02 Q1011
Observed Flight Rules
Oct-24 @ 05:50 UTC
(12 minutes ago)
Wind
280° at 8 knots
Clouds
  • Broken at 20,000' AGL
Temperature Dewpoint
5°C / 41°F 2°C / 36°F
Humidity Altimeter Pressure
81% 29.85" Hg 1011 hPa